Saint Marks, Florida
Current Conditions -  °F | °C
As of 12:53 PM on Thursday 23 Oct 2014 (Local Time) from KTLH Reporting Station
Clear Clear  
Wind Chill: 73°   Ceiling: Unl
Heat Index: 73°   Visibility: 10mi
Dew Point: 39°   Wind: 10mph
Humidity: 29%   Direction: 80°E
Pressure: 30.07"   Gusts: NA
Location:  30.16°N, 84.21°W
Report Text: KTLH 231653Z 08009KT 10SM CLR 23/04 A3007 RMK AO2 SLP183 T02280039
Loading
Personal Weather Stations






























Interactive Weather Map
Tropical Storm Tracking
New forecast layout! Learn more

10-Day Weather Forecast

Advertisements
Track Severe Weather on mobile